Time;durP1;ratioP1;P1;durP2;ratioP2;P2;SDS_P1;SDS_P2;PMS_P1;PMS_P2;Temp;Humidity;BMP_temperature;BMP_pressure;BME280_temperature;BME280_humidity;BME280_pressure;Samples;Min_cycle;Max_cycle;Signal;HPM_P1;HPM_P2
2023/06/26 00:02:10;;;;;;;7.75;6.95;;;;;;;21.29;40.08;95633.41;4976730;28;20188;-79
2023/06/26 00:04:37;;;;;;;9.10;8.10;;;;;;;21.08;41.04;95630.03;4994868;28;20214;-78
2023/06/26 00:07:03;;;;;;;10.32;8.05;;;;;;;21.21;40.30;95635.28;5011078;28;20226;-78
2023/06/26 00:09:29;;;;;;;8.90;6.90;;;;;;;21.13;40.43;95627.59;4978378;28;20661;-78
2023/06/26 00:11:54;;;;;;;8.13;6.90;;;;;;;21.07;40.85;95633.72;5011218;28;20219;-79
2023/06/26 00:14:20;;;;;;;8.07;7.28;;;;;;;21.05;40.68;95630.47;4990237;28;20232;-79
2023/06/26 00:16:49;;;;;;;8.57;6.85;;;;;;;21.09;40.92;95634.31;4993128;28;20211;-79
2023/06/26 00:19:15;;;;;;;8.57;7.72;;;;;;;21.05;41.00;95638.41;5011007;28;20184;-78
2023/06/26 00:21:40;;;;;;;8.05;7.30;;;;;;;20.98;41.09;95634.97;4972796;28;20183;-82
2023/06/26 00:24:06;;;;;;;8.05;7.25;;;;;;;20.89;41.38;95631.75;5010321;28;20200;-78
2023/06/26 00:26:31;;;;;;;10.15;8.07;;;;;;;20.94;41.13;95639.06;4973695;28;20191;-82
2023/06/26 00:28:56;;;;;;;7.88;7.07;;;;;;;20.97;41.09;95638.63;4993600;28;20180;-78
2023/06/26 00:31:21;;;;;;;8.23;7.38;;;;;;;20.95;41.13;95637.22;4986098;28;20192;-78
2023/06/26 00:33:47;;;;;;;8.10;7.30;;;;;;;21.01;40.89;95634.53;5009936;28;20697;-79
2023/06/26 00:36:12;;;;;;;7.85;7.03;;;;;;;20.93;41.26;95638.22;4994633;28;20668;-78
2023/06/26 00:38:37;;;;;;;7.85;7.15;;;;;;;21.00;41.03;95638.19;5011487;28;20302;-78
2023/06/26 00:41:03;;;;;;;8.07;7.28;;;;;;;20.90;41.21;95628.09;4977021;28;20192;-78
2023/06/26 00:43:28;;;;;;;8.13;7.32;;;;;;;21.03;41.13;95631.72;4993827;28;20208;-78
2023/06/26 00:45:54;;;;;;;7.68;6.88;;;;;;;21.07;41.04;95633.72;4994587;28;20282;-79
2023/06/26 00:48:19;;;;;;;9.35;7.68;;;;;;;20.86;41.28;95631.38;5008812;28;20188;-79
2023/06/26 00:50:44;;;;;;;7.75;6.90;;;;;;;20.89;41.21;95631.75;4990587;28;20279;-79
2023/06/26 00:53:10;;;;;;;9.18;7.40;;;;;;;21.03;41.00;95632.53;5009992;28;20199;-79
2023/06/26 00:55:36;;;;;;;8.00;7.20;;;;;;;21.02;41.05;95630.88;5011061;28;20653;-78
2023/06/26 00:58:01;;;;;;;8.70;7.43;;;;;;;20.94;41.27;95633.78;4994736;28;20217;-78
2023/06/26 01:00:27;;;;;;;8.35;7.55;;;;;;;20.88;41.27;95630.16;4989275;28;20649;-77
2023/06/26 01:02:52;;;;;;;8.43;7.22;;;;;;;20.79;41.71;95633.22;5023555;28;20204;-79
2023/06/26 01:05:20;;;;;;;8.20;7.40;;;;;;;21.00;41.02;95632.13;5006489;28;20215;-78
2023/06/26 01:07:48;;;;;;;8.60;7.80;;;;;;;20.99;40.83;95628.66;5034726;28;20994;-77
2023/06/26 01:10:13;;;;;;;7.93;7.13;;;;;;;20.95;41.18;95635.41;5026249;28;20195;-79
2023/06/26 01:12:39;;;;;;;8.48;6.97;;;;;;;20.93;41.34;95632.13;4995725;28;20203;-78
2023/06/26 01:15:04;;;;;;;8.35;7.47;;;;;;;20.90;41.22;95622.81;4992316;28;20204;-80
2023/06/26 01:17:31;;;;;;;8.27;7.40;;;;;;;20.89;41.34;95626.47;5002762;28;20199;-79
2023/06/26 01:19:58;;;;;;;8.10;7.20;;;;;;;20.89;41.52;95620.41;5007723;28;20258;-79
2023/06/26 01:22:44;;;;;;;10.65;7.88;;;;;;;20.90;41.56;95624.66;4999424;28;20172;-79
2023/06/26 01:25:18;;;;;;;7.72;7.03;;;;;;;20.90;41.51;95625.47;5018645;28;20207;-77
2023/06/26 01:27:48;;;;;;;7.68;6.97;;;;;;;20.77;41.65;95611.53;5003901;28;20196;-78
2023/06/26 01:30:14;;;;;;;8.13;7.32;;;;;;;20.87;41.46;95611.88;5029555;28;20177;-79
2023/06/26 01:32:40;;;;;;;7.57;6.88;;;;;;;20.82;41.53;95611.69;5014268;28;20196;-77
2023/06/26 01:35:07;;;;;;;8.48;7.68;;;;;;;20.81;41.69;95610.88;5008479;28;20239;-79
2023/06/26 01:37:32;;;;;;;7.95;7.22;;;;;;;20.90;41.53;95606.97;4998682;28;20211;-78
2023/06/26 01:39:58;;;;;;;8.07;7.28;;;;;;;20.87;41.14;95601.31;5011427;28;20188;-78
2023/06/26 01:42:23;;;;;;;8.20;7.40;;;;;;;20.78;41.59;95600.75;4988170;28;20192;-79
2023/06/26 01:44:50;;;;;;;7.90;7.13;;;;;;;20.81;41.17;95588.97;5013019;28;20253;-79
2023/06/26 01:47:17;;;;;;;8.02;7.22;;;;;;;20.69;41.41;95598.56;4997473;28;20183;-79
2023/06/26 01:49:54;;;;;;;7.88;6.90;;;;;;;20.80;41.43;95596.06;4995859;28;20212;-80
2023/06/26 01:52:23;;;;;;;7.75;7.05;;;;;;;20.76;41.31;95608.06;5013313;28;20191;-79
2023/06/26 01:55:07;;;;;;;10.85;6.97;;;;;;;20.81;41.00;95597.69;5011269;28;20757;-79
2023/06/26 01:57:33;;;;;;;7.63;6.63;;;;;;;20.82;40.82;95593.22;5011117;28;20226;-79
2023/06/26 01:59:59;;;;;;;7.30;6.63;;;;;;;20.71;41.19;95591.25;5010659;28;20192;-78
2023/06/26 02:02:25;;;;;;;7.72;6.93;;;;;;;20.85;40.80;95595.44;4975008;28;20726;-80
2023/06/26 02:04:51;;;;;;;7.43;6.63;;;;;;;20.72;41.40;95592.84;4993641;28;20231;-80
2023/06/26 02:07:16;;;;;;;8.43;7.40;;;;;;;20.71;41.15;95596.53;5010424;28;20275;-79
2023/06/26 02:09:42;;;;;;;8.43;7.25;;;;;;;20.75;41.02;95597.69;4993217;28;20215;-80
2023/06/26 02:12:07;;;;;;;7.88;7.07;;;;;;;20.66;41.59;95599.78;4993634;28;20271;-80
2023/06/26 02:14:32;;;;;;;7.75;6.95;;;;;;;20.60;41.89;95603.25;5006659;28;20235;-78
2023/06/26 02:16:58;;;;;;;7.22;6.07;;;;;;;20.59;41.32;95609.56;4992296;28;20195;-79
2023/06/26 02:19:24;;;;;;;7.72;7.03;;;;;;;20.52;41.94;95599.03;4993652;28;20211;-79
2023/06/26 02:21:50;;;;;;;8.07;7.07;;;;;;;20.56;41.98;95604.69;5010265;28;20192;-79
2023/06/26 02:24:16;;;;;;;7.78;6.97;;;;;;;20.56;41.71;95599.41;4992846;28;20303;-78
2023/06/26 02:26:41;;;;;;;7.80;6.78;;;;;;;20.46;41.91;95605.13;4985294;28;20538;-79
2023/06/26 02:29:06;;;;;;;7.35;6.57;;;;;;;20.61;41.24;95592.50;4989650;28;20212;-78
2023/06/26 02:31:32;;;;;;;9.40;6.72;;;;;;;20.53;41.69;95600.63;4972579;28;20184;-80
2023/06/26 02:33:57;;;;;;;7.20;6.32;;;;;;;20.43;41.76;95596.78;5010324;28;20226;-80
2023/06/26 02:36:23;;;;;;;10.75;7.03;;;;;;;20.52;41.58;95598.22;4993564;28;20673;-78
2023/06/26 02:38:48;;;;;;;7.03;6.28;;;;;;;20.43;41.78;95589.72;4994714;28;20234;-79
2023/06/26 02:41:13;;;;;;;7.90;6.85;;;;;;;20.52;41.49;95593.75;5007805;28;20282;-79
2023/06/26 02:43:39;;;;;;;7.90;7.10;;;;;;;20.57;41.30;95593.91;4975472;28;20215;-80
2023/06/26 02:46:04;;;;;;;9.35;6.90;;;;;;;20.52;41.86;95598.22;4993370;28;20188;-79
2023/06/26 02:48:29;;;;;;;7.78;6.30;;;;;;;20.48;41.91;95589.88;4976839;28;20188;-78
2023/06/26 02:50:55;;;;;;;7.63;6.82;;;;;;;20.55;41.41;95595.16;5009293;28;20188;-78
2023/06/26 02:53:20;;;;;;;7.70;6.88;;;;;;;20.44;42.14;95596.59;5008730;28;20191;-78
2023/06/26 02:55:47;;;;;;;7.68;6.57;;;;;;;20.38;42.15;95597.41;4993924;28;20191;-83
2023/06/26 02:58:13;;;;;;;8.18;6.72;;;;;;;20.47;41.88;95596.19;4993366;28;20210;-84
2023/06/26 03:00:41;;;;;;;8.25;6.60;;;;;;;20.39;41.81;95601.66;4978310;28;20184;-80
2023/06/26 03:03:06;;;;;;;7.22;6.53;;;;;;;20.42;41.86;95593.34;4988597;28;20187;-80
2023/06/26 03:05:31;;;;;;;7.72;6.93;;;;;;;20.48;41.94;95597.81;4992248;28;20203;-80
2023/06/26 03:07:57;;;;;;;7.25;6.53;;;;;;;20.51;41.57;95596.59;4960481;28;20211;-79
2023/06/26 03:10:22;;;;;;;7.93;7.13;;;;;;;20.47;41.74;95598.81;4962342;28;20192;-80
2023/06/26 03:12:48;;;;;;;7.35;6.65;;;;;;;20.44;41.63;95599.25;4969972;28;20183;-79
2023/06/26 03:15:13;;;;;;;7.93;7.00;;;;;;;20.46;41.65;95602.47;4990589;28;20211;-82
2023/06/26 03:17:39;;;;;;;7.47;6.28;;;;;;;20.53;41.62;95602.47;4985416;28;20195;-80
2023/06/26 03:20:06;;;;;;;6.95;6.25;;;;;;;20.63;41.25;95594.91;4993835;28;20183;-82
2023/06/26 03:22:32;;;;;;;7.60;6.80;;;;;;;20.68;40.96;95595.13;5007789;28;20188;-79
2023/06/26 03:24:57;;;;;;;7.20;6.50;;;;;;;20.58;41.46;95603.47;4984901;28;20210;-80
2023/06/26 03:27:23;;;;;;;7.20;6.50;;;;;;;20.81;41.12;95602.16;4990690;28;20188;-79
2023/06/26 03:29:48;;;;;;;7.40;6.60;;;;;;;20.79;41.07;95599.72;4993679;28;20191;-79
2023/06/26 03:32:13;;;;;;;11.02;7.32;;;;;;;20.77;41.11;95596.50;5009129;28;20211;-79
2023/06/26 03:34:38;;;;;;;7.05;6.35;;;;;;;20.89;40.95;95604.56;5008219;28;20247;-79
2023/06/26 03:37:04;;;;;;;7.30;6.60;;;;;;;20.93;41.25;95605.75;4990204;28;20228;-80
2023/06/26 03:39:29;;;;;;;7.45;6.72;;;;;;;21.04;41.27;95607.75;4988765;28;20254;-78
2023/06/26 03:41:55;;;;;;;7.00;6.30;;;;;;;21.21;40.81;95608.06;4988905;28;20224;-79
2023/06/26 03:44:22;;;;;;;7.60;6.90;;;;;;;21.56;40.05;95611.13;5007146;28;20291;-78
2023/06/26 03:46:47;;;;;;;7.03;6.32;;;;;;;22.08;39.15;95597.69;5004777;28;20533;-80
2023/06/26 03:49:13;;;;;;;6.38;5.57;;;;;;;22.77;37.85;95600.00;4992600;28;20198;-80
2023/06/26 03:51:38;;;;;;;6.57;5.93;;;;;;;22.88;37.55;95601.09;5008227;28;20192;-79
2023/06/26 03:54:03;;;;;;;6.40;5.80;;;;;;;23.35;36.72;95607.41;4984787;28;20239;-79
2023/06/26 03:56:29;;;;;;;6.10;5.53;;;;;;;23.83;35.94;95601.19;4967415;28;20283;-79
2023/06/26 03:58:54;;;;;;;6.10;5.50;;;;;;;24.45;34.38;95608.72;4990664;28;20261;-79
2023/06/26 04:01:21;;;;;;;6.40;5.80;;;;;;;25.07;33.63;95604.44;5007578;28;20677;-79
2023/06/26 04:03:46;;;;;;;8.85;6.07;;;;;;;25.70;32.71;95606.13;4984016;28;20199;-79
2023/06/26 04:06:12;;;;;;;7.00;6.32;;;;;;;25.87;31.96;95610.66;5006090;28;20264;-79
2023/06/26 04:08:37;;;;;;;5.63;5.13;;;;;;;26.19;31.79;95606.38;5015075;28;20175;-79
2023/06/26 04:11:02;;;;;;;6.25;5.60;;;;;;;27.04;30.50;95613.16;5031205;28;20190;-79
2023/06/26 04:13:28;;;;;;;6.38;5.78;;;;;;;27.28;30.33;95608.31;4994143;28;20207;-80
2023/06/26 04:15:53;;;;;;;6.03;5.53;;;;;;;27.09;30.74;95615.84;4967634;28;20581;-79
2023/06/26 04:18:20;;;;;;;7.35;5.53;;;;;;;27.98;29.26;95613.78;5012295;28;20212;-80
2023/06/26 04:21:07;;;;;;;6.97;5.65;;;;;;;28.34;28.56;95613.00;5010616;28;20230;-79
2023/06/26 04:23:33;;;;;;;6.20;5.60;;;;;;;28.48;28.83;95616.84;5010457;28;20301;-80
2023/06/26 04:25:59;;;;;;;5.88;5.35;;;;;;;28.92;27.87;95613.06;4993226;28;20653;-80
2023/06/26 04:28:24;;;;;;;6.18;5.57;;;;;;;28.70;28.22;95611.34;4994436;28;20176;-79
2023/06/26 04:30:50;;;;;;;6.53;5.10;;;;;;;29.21;27.72;95614.25;4963016;28;20243;-78
2023/06/26 04:33:15;;;;;;;6.25;5.75;;;;;;;29.46;27.35;95618.03;5013984;28;20199;-84
2023/06/26 04:35:40;;;;;;;5.95;5.45;;;;;;;30.33;26.19;95621.63;5012434;28;20250;-83
2023/06/26 04:38:06;;;;;;;6.43;5.80;;;;;;;29.66;26.90;95611.94;5011753;28;20215;-83
2023/06/26 04:40:31;;;;;;;5.85;5.35;;;;;;;30.56;25.76;95620.22;4991228;28;20179;-84
2023/06/26 04:42:56;;;;;;;5.72;5.25;;;;;;;30.67;25.81;95621.84;4975582;28;20192;-83
2023/06/26 04:45:22;;;;;;;6.03;5.43;;;;;;;31.47;24.78;95616.41;4977296;28;20219;-83
2023/06/26 04:47:47;;;;;;;6.50;5.90;;;;;;;30.46;25.58;95618.38;5013087;28;20204;-83
2023/06/26 04:50:12;;;;;;;5.80;5.28;;;;;;;30.61;25.47;95623.69;5012579;28;20199;-83
2023/06/26 04:52:37;;;;;;;7.47;5.88;;;;;;;30.94;25.29;95624.97;5011883;28;20188;-82
2023/06/26 04:55:03;;;;;;;6.45;5.85;;;;;;;31.57;24.60;95619.03;4972297;28;20211;-83
2023/06/26 04:57:28;;;;;;;6.97;5.80;;;;;;;31.02;24.73;95620.91;4988803;28;20193;-83
2023/06/26 04:59:54;;;;;;;7.00;5.50;;;;;;;32.09;24.18;95618.41;4995864;28;20184;-83
2023/06/26 05:02:19;;;;;;;6.20;5.70;;;;;;;31.63;24.21;95617.09;5011141;28;20207;-81
2023/06/26 05:04:46;;;;;;;6.60;5.78;;;;;;;31.85;24.71;95617.53;4975411;28;20211;-84
2023/06/26 05:07:11;;;;;;;6.38;5.53;;;;;;;32.38;24.26;95612.25;4960737;28;20184;-82
2023/06/26 05:09:37;;;;;;;5.22;4.70;;;;;;;33.20;23.50;95610.25;4983429;28;20202;-84
2023/06/26 05:12:02;;;;;;;6.22;5.65;;;;;;;32.77;23.13;95620.16;4972968;28;20195;-82
2023/06/26 05:14:28;;;;;;;7.32;5.53;;;;;;;32.82;23.41;95609.38;4971466;28;20212;-82
2023/06/26 05:16:53;;;;;;;6.38;5.72;;;;;;;33.95;22.14;95616.78;4986448;28;20199;-83
2023/06/26 05:19:18;;;;;;;6.28;5.78;;;;;;;33.11;23.48;95612.00;5010570;28;20187;-83
2023/06/26 05:21:44;;;;;;;6.45;5.85;;;;;;;33.16;23.38;95620.00;5010918;28;20278;-83
2023/06/26 05:24:11;;;;;;;6.80;6.10;;;;;;;33.84;23.40;95613.44;5010481;28;20578;-85
2023/06/26 05:26:37;;;;;;;6.50;5.90;;;;;;;33.52;23.24;95611.47;5011779;28;20191;-86
2023/06/26 05:29:05;;;;;;;5.95;5.43;;;;;;;33.65;22.44;95618.81;4961593;28;20185;-87
2023/06/26 05:31:33;;;;;;;6.50;5.65;;;;;;;33.44;23.21;95617.50;4992488;28;20607;-87
2023/06/26 05:34:00;;;;;;;6.40;5.80;;;;;;;34.48;22.25;95616.44;4996180;28;20224;-86
2023/06/26 05:36:26;;;;;;;6.10;5.60;;;;;;;34.87;22.09;95616.75;5009400;28;20598;-88
2023/06/26 05:38:51;;;;;;;6.97;5.80;;;;;;;34.47;22.35;95618.34;5010637;28;20705;-89
2023/06/26 05:41:17;;;;;;;5.55;5.03;;;;;;;34.90;22.36;95620.81;4978250;28;20192;-85
2023/06/26 05:43:42;;;;;;;5.90;5.40;;;;;;;34.67;22.48;95621.75;4990421;28;20239;-84
2023/06/26 05:46:07;;;;;;;8.52;5.40;;;;;;;35.06;22.10;95613.97;5011525;28;20238;-85
2023/06/26 05:48:32;;;;;;;5.68;5.28;;;;;;;35.08;21.82;95625.28;5011642;28;20183;-85
2023/06/26 05:50:58;;;;;;;6.45;5.95;;;;;;;35.63;22.14;95627.91;4995802;28;20531;-86
2023/06/26 05:53:24;;;;;;;6.40;5.82;;;;;;;34.86;22.38;95623.25;4992597;28;20189;-85
2023/06/26 05:55:49;;;;;;;6.03;5.47;;;;;;;35.55;21.74;95617.84;4967231;28;20241;-84
2023/06/26 05:58:16;;;;;;;6.40;5.90;;;;;;;35.22;22.00;95624.47;5008756;28;20382;-84
2023/06/26 06:01:04;;;;;;;6.18;5.78;;;;;;;36.34;21.03;95630.03;4975038;28;20712;-88
2023/06/26 06:15:38;;;;;;;6.57;5.40;;;;;;;36.96;20.83;95630.84;5332919;23;20317;-79
2023/06/26 06:18:03;;;;;;;5.75;5.32;;;;;;;37.10;20.61;95638.84;4986610;28;20219;-82
2023/06/26 06:20:29;;;;;;;5.70;5.22;;;;;;;37.09;20.57;95645.38;4977010;28;20199;-80
2023/06/26 06:22:54;;;;;;;5.90;5.40;;;;;;;36.77;20.31;95641.09;4969354;28;20702;-80
2023/06/26 06:25:19;;;;;;;6.07;5.63;;;;;;;37.30;20.17;95643.72;4954472;28;20212;-83
2023/06/26 06:27:45;;;;;;;5.72;5.28;;;;;;;37.18;19.57;95640.78;4964470;28;20196;-81
2023/06/26 06:30:11;;;;;;;5.97;5.40;;;;;;;37.63;19.75;95645.97;4957993;28;20188;-82
2023/06/26 06:32:36;;;;;;;5.60;5.20;;;;;;;37.80;19.07;95647.94;4967338;28;20693;-82
2023/06/26 06:35:08;;;;;;;5.90;5.40;;;;;;;36.78;20.07;95646.19;4966254;28;20299;-82
2023/06/26 06:37:33;;;;;;;6.32;5.47;;;;;;;36.83;20.10;95642.53;4961517;28;20568;-83
2023/06/26 06:39:59;;;;;;;7.25;5.05;;;;;;;36.74;20.42;95652.53;4954555;28;20190;-81
2023/06/26 06:42:24;;;;;;;5.53;5.13;;;;;;;37.12;19.66;95650.97;4964150;28;20248;-80
2023/06/26 06:44:50;;;;;;;5.78;5.20;;;;;;;37.81;19.20;95650.31;4940647;28;20216;-82
2023/06/26 06:47:15;;;;;;;5.65;5.15;;;;;;;37.60;19.13;95660.16;4955424;28;20205;-81
2023/06/26 06:49:40;;;;;;;5.55;5.05;;;;;;;37.37;20.14;95656.78;4963750;28;20200;-82
2023/06/26 06:52:05;;;;;;;5.72;5.32;;;;;;;37.33;20.06;95659.31;4958418;28;20177;-82
2023/06/26 06:54:31;;;;;;;6.38;5.07;;;;;;;37.30;20.18;95651.03;4954529;28;20251;-81
2023/06/26 06:56:56;;;;;;;6.28;5.55;;;;;;;36.68;20.24;95653.78;4960493;28;20559;-81
2023/06/26 06:59:21;;;;;;;5.68;5.28;;;;;;;36.28;20.81;95649.09;4955158;28;20199;-81
2023/06/26 07:01:47;;;;;;;6.22;5.57;;;;;;;36.64;20.49;95656.31;4961088;28;20208;-81
2023/06/26 07:04:12;;;;;;;6.97;5.38;;;;;;;36.12;21.21;95650.56;4955326;28;20205;-81
2023/06/26 07:06:37;;;;;;;5.90;5.28;;;;;;;36.14;20.52;95648.38;4959231;28;20188;-81
2023/06/26 07:09:03;;;;;;;5.63;5.13;;;;;;;36.81;20.19;95652.88;4963239;28;20181;-81
2023/06/26 07:11:28;;;;;;;6.47;5.55;;;;;;;35.25;21.84;95642.75;4963577;28;20197;-81
2023/06/26 07:13:55;;;;;;;7.40;4.93;;;;;;;35.72;21.44;95649.59;4926803;28;20307;-81
2023/06/26 07:16:20;;;;;;;5.47;4.90;;;;;;;36.57;20.10;95647.84;4965494;28;20266;-81
2023/06/26 07:18:45;;;;;;;6.03;5.45;;;;;;;36.15;21.18;95641.84;4954824;28;20774;-81
2023/06/26 07:21:11;;;;;;;5.55;5.15;;;;;;;36.69;20.88;95641.88;4974994;28;20190;-84
2023/06/26 07:23:36;;;;;;;5.28;4.82;;;;;;;35.72;21.13;95645.00;4961183;28;20267;-82
2023/06/26 07:26:01;;;;;;;5.65;5.15;;;;;;;36.34;20.81;95646.25;4965733;28;20658;-79
2023/06/26 07:28:27;;;;;;;8.18;5.78;;;;;;;35.88;21.58;95650.09;4954785;28;20193;-79
2023/06/26 07:30:52;;;;;;;5.22;4.80;;;;;;;36.04;21.38;95648.59;4968421;28;20196;-79
2023/06/26 07:33:18;;;;;;;5.85;5.22;;;;;;;36.20;20.48;95647.13;4969664;28;20189;-79
2023/06/26 07:35:43;;;;;;;6.20;5.70;;;;;;;35.58;21.76;95646.91;4966406;28;20248;-79
2023/06/26 07:38:09;;;;;;;6.28;5.68;;;;;;;35.50;21.77;95657.66;4960757;28;20224;-79
2023/06/26 07:40:34;;;;;;;5.60;5.10;;;;;;;35.64;22.20;95659.22;4946439;28;20181;-80
2023/06/26 07:42:59;;;;;;;6.18;4.85;;;;;;;35.41;22.39;95655.66;4962540;28;20189;-80
2023/06/26 07:45:24;;;;;;;6.90;5.38;;;;;;;35.49;22.23;95662.25;4947125;28;20211;-79
2023/06/26 07:47:50;;;;;;;5.40;4.90;;;;;;;35.58;21.50;95657.72;4960804;28;20185;-79
2023/06/26 07:50:22;;;;;;;6.35;4.90;;;;;;;35.13;22.91;95657.56;4964402;28;20192;-79
2023/06/26 07:52:47;;;;;;;6.15;5.40;;;;;;;35.42;22.27;95653.75;4970789;28;20185;-79
2023/06/26 07:55:12;;;;;;;5.05;4.53;;;;;;;35.50;22.63;95661.13;4964467;28;20213;-78
2023/06/26 07:57:38;;;;;;;5.63;5.13;;;;;;;35.39;22.22;95660.56;4965382;28;20205;-79
2023/06/26 08:00:06;;;;;;;7.30;5.30;;;;;;;34.98;22.95;95670.56;4960081;28;20580;-79
2023/06/26 08:02:31;;;;;;;5.72;5.22;;;;;;;35.14;22.79;95661.84;4959978;28;20191;-79
2023/06/26 08:04:57;;;;;;;5.07;4.53;;;;;;;35.12;22.96;95666.75;4967884;28;20212;-78
2023/06/26 08:07:22;;;;;;;5.35;4.95;;;;;;;34.97;23.18;95661.66;4964201;28;20217;-81
2023/06/26 08:09:47;;;;;;;5.90;5.30;;;;;;;34.95;23.06;95663.84;4960900;28;20671;-80
2023/06/26 08:12:13;;;;;;;5.20;4.80;;;;;;;34.91;23.52;95658.28;4967237;28;20203;-80
2023/06/26 08:14:38;;;;;;;5.88;5.15;;;;;;;34.49;23.31;95653.09;4963931;28;20201;-80
2023/06/26 08:17:04;;;;;;;6.35;5.75;;;;;;;34.02;24.16;95650.34;4963156;28;22151;-79
2023/06/26 08:19:29;;;;;;;5.63;5.10;;;;;;;34.43;23.36;95662.34;4968805;28;20244;-79
2023/06/26 08:21:54;;;;;;;5.18;4.78;;;;;;;33.88;24.43;95654.03;4964661;28;20231;-80
2023/06/26 08:24:20;;;;;;;5.85;5.35;;;;;;;33.67;25.02;95653.53;4958959;28;20200;-80
2023/06/26 08:26:46;;;;;;;6.00;5.18;;;;;;;34.07;24.22;95654.84;4962185;28;20272;-80
2023/06/26 08:29:11;;;;;;;5.97;5.47;;;;;;;33.86;24.78;95651.63;4945110;28;20208;-79
2023/06/26 08:31:38;;;;;;;6.00;5.35;;;;;;;33.94;25.36;95647.53;4966926;28;20189;-80
2023/06/26 08:34:04;;;;;;;5.82;5.32;;;;;;;34.48;24.31;95649.59;4948247;28;20213;-80
2023/06/26 08:36:29;;;;;;;6.38;5.78;;;;;;;33.44;25.25;95647.13;4958347;28;20699;-80
2023/06/26 08:38:55;;;;;;;5.90;5.40;;;;;;;34.01;25.30;95651.41;4969917;28;20252;-80
2023/06/26 08:41:20;;;;;;;6.70;6.10;;;;;;;33.22;25.87;95650.34;4976765;28;20180;-79
2023/06/26 08:43:46;;;;;;;6.15;5.55;;;;;;;33.33;26.19;95649.13;4968430;28;20311;-80
2023/06/26 08:46:11;;;;;;;6.05;5.40;;;;;;;32.89;25.23;95652.88;4969135;28;20291;-80
2023/06/26 08:48:37;;;;;;;6.40;4.90;;;;;;;33.15;25.79;95656.06;4965164;28;20215;-79
2023/06/26 08:51:08;;;;;;;5.80;5.30;;;;;;;32.65;26.17;95660.09;4979735;28;20197;-80
2023/06/26 08:53:50;;;;;;;6.05;5.55;;;;;;;32.95;26.81;95657.13;4974272;28;20299;-84
2023/06/26 08:56:17;;;;;;;6.50;5.88;;;;;;;33.25;26.27;95657.84;4966421;28;20184;-80
2023/06/26 08:58:43;;;;;;;6.88;6.03;;;;;;;33.13;26.66;95660.94;4964155;28;20228;-79
2023/06/26 09:01:08;;;;;;;6.03;5.50;;;;;;;32.86;25.88;95661.50;4954143;28;20601;-79
2023/06/26 09:03:34;;;;;;;6.97;5.53;;;;;;;33.01;25.91;95659.75;4947181;28;20291;-81
2023/06/26 09:06:00;;;;;;;6.70;5.93;;;;;;;32.93;26.04;95667.34;4944335;28;20269;-77
2023/06/26 09:08:25;;;;;;;6.72;6.05;;;;;;;32.87;25.80;95663.13;4956168;28;20177;-77
2023/06/26 09:10:51;;;;;;;6.65;5.90;;;;;;;32.39;26.24;95663.03;4965688;28;20214;-77
2023/06/26 09:13:18;;;;;;;6.00;5.50;;;;;;;32.49;25.83;95658.66;4965474;28;20224;-77
2023/06/26 09:15:44;;;;;;;6.80;6.13;;;;;;;32.59;26.02;95670.09;4952494;28;20200;-77
2023/06/26 09:18:10;;;;;;;5.95;5.35;;;;;;;32.90;26.57;95667.94;4961129;28;20219;-77
2023/06/26 09:20:35;;;;;;;6.03;5.53;;;;;;;32.44;27.03;95669.47;4957742;28;20280;-76
2023/06/26 09:23:01;;;;;;;6.25;5.75;;;;;;;31.90;27.52;95675.78;4949094;28;20220;-78
2023/06/26 09:25:26;;;;;;;6.85;6.13;;;;;;;32.12;28.09;95678.81;4947164;28;20581;-78
2023/06/26 09:27:52;;;;;;;7.95;6.85;;;;;;;32.87;28.16;95678.47;4969003;28;20183;-78
2023/06/26 09:30:18;;;;;;;7.88;7.18;;;;;;;32.47;28.29;95679.63;4959273;28;20299;-78
2023/06/26 09:32:43;;;;;;;7.60;6.80;;;;;;;32.04;29.15;95682.91;4965330;28;20689;-78
2023/06/26 09:35:09;;;;;;;7.80;6.78;;;;;;;32.77;29.01;95682.00;4965926;28;20209;-78
2023/06/26 09:37:35;;;;;;;8.10;7.40;;;;;;;32.15;29.86;95689.00;4949073;28;20252;-78
2023/06/26 09:40:00;;;;;;;8.55;6.85;;;;;;;31.68;30.23;95698.41;4960001;28;20327;-82
2023/06/26 09:42:25;;;;;;;7.35;6.65;;;;;;;31.83;30.15;95698.34;4975001;28;20216;-81
2023/06/26 09:44:51;;;;;;;7.85;7.07;;;;;;;30.91;31.99;95692.53;4964221;28;20272;-81
2023/06/26 09:47:18;;;;;;;7.50;6.90;;;;;;;31.24;30.72;95691.09;4972675;28;20176;-81
2023/06/26 09:49:43;;;;;;;7.68;6.97;;;;;;;30.98;31.15;95708.34;4979055;28;20185;-84
2023/06/26 09:52:08;;;;;;;8.02;7.22;;;;;;;31.05;31.10;95700.81;5002132;28;20191;-84
2023/06/26 09:54:35;;;;;;;8.35;6.93;;;;;;;30.73;31.51;95698.47;4979423;28;20189;-84
2023/06/26 09:57:16;;;;;;;11.05;7.07;;;;;;;30.29;31.64;95698.22;4986343;28;20189;-85
2023/06/26 09:59:44;;;;;;;8.18;7.18;;;;;;;30.25;32.09;95694.47;4969949;28;20685;-81
2023/06/26 10:02:10;;;;;;;11.82;7.25;;;;;;;30.36;32.17;95706.78;4969679;28;20200;-81
2023/06/26 10:04:36;;;;;;;7.40;6.70;;;;;;;30.32;32.08;95703.06;4964430;28;20271;-82
2023/06/26 10:07:02;;;;;;;7.68;6.97;;;;;;;30.35;32.52;95715.91;4947321;28;20180;-81
2023/06/26 10:09:29;;;;;;;7.88;7.18;;;;;;;30.52;32.24;95713.75;4957796;28;20238;-81
2023/06/26 10:12:02;;;;;;;8.10;7.00;;;;;;;30.42;32.73;95703.84;4963341;28;20272;-81
2023/06/26 10:14:35;;;;;;;7.88;7.07;;;;;;;30.57;32.89;95713.75;4949445;28;20690;-81
2023/06/26 10:17:04;;;;;;;7.80;7.10;;;;;;;30.33;33.44;95708.13;4932962;28;20574;-81
2023/06/26 10:19:30;;;;;;;8.07;7.22;;;;;;;30.53;32.68;95712.69;4956308;28;20701;-82
2023/06/26 10:21:57;;;;;;;8.18;7.43;;;;;;;30.32;33.33;95711.88;4953275;28;20228;-81
2023/06/26 10:24:23;;;;;;;8.45;7.47;;;;;;;30.61;33.02;95714.00;4955999;28;20204;-81
2023/06/26 10:26:50;;;;;;;9.45;7.22;;;;;;;30.70;33.26;95715.91;4948328;28;20665;-84
2023/06/26 10:29:16;;;;;;;7.93;7.22;;;;;;;30.88;32.57;95716.41;4939435;28;20193;-80
2023/06/26 10:31:51;;;;;;;7.80;7.00;;;;;;;30.76;33.30;95718.59;4963151;28;20681;-84
2023/06/26 10:34:17;;;;;;;8.40;6.88;;;;;;;29.97;34.83;95709.97;4952081;28;20214;-82
2023/06/26 10:36:42;;;;;;;8.85;6.80;;;;;;;30.26;34.82;95726.34;4960706;28;20622;-83
2023/06/26 10:39:07;;;;;;;8.20;7.40;;;;;;;29.82;34.64;95723.31;4937679;28;20220;-81
2023/06/26 10:41:43;;;;;;;8.25;7.38;;;;;;;30.28;34.41;95720.72;4937548;28;20268;-81
2023/06/26 10:44:09;;;;;;;8.05;6.63;;;;;;;30.77;33.84;95717.50;4957825;28;20195;-83
2023/06/26 10:46:52;;;;;;;8.20;6.82;;;;;;;31.06;33.58;95723.06;4954218;28;20609;-82
2023/06/26 10:49:18;;;;;;;8.02;6.70;;;;;;;30.91;33.23;95715.84;4968310;28;20185;-81
2023/06/26 10:51:50;;;;;;;6.68;6.07;;;;;;;31.02;33.31;95728.19;4940337;28;20210;-83
2023/06/26 10:54:19;;;;;;;8.10;6.30;;;;;;;30.68;33.11;95722.63;4965636;28;20678;-81
2023/06/26 10:56:50;;;;;;;9.13;6.78;;;;;;;30.86;33.37;95721.25;4960980;28;20616;-82
2023/06/26 10:59:20;;;;;;;8.10;6.43;;;;;;;30.89;34.20;95720.69;4964788;28;20589;-81
2023/06/26 11:01:56;;;;;;;8.57;6.40;;;;;;;31.25;33.15;95727.59;4953927;28;20185;-82
2023/06/26 11:04:43;;;;;;;7.15;6.25;;;;;;;31.15;32.83;95724.91;4958571;28;20211;-81
2023/06/26 11:07:19;;;;;;;6.97;6.38;;;;;;;31.28;32.67;95727.06;4968125;28;20196;-82
2023/06/26 11:09:54;;;;;;;7.32;6.55;;;;;;;31.14;33.01;95727.88;4962063;28;20199;-81
2023/06/26 11:12:41;;;;;;;7.80;6.47;;;;;;;30.81;34.14;95718.56;4964865;28;20187;-82
2023/06/26 11:15:12;;;;;;;6.78;5.85;;;;;;;31.02;34.08;95725.50;4966635;28;20691;-82
2023/06/26 11:17:37;;;;;;;8.30;6.43;;;;;;;31.21;34.84;95734.59;4947639;28;20264;-82
2023/06/26 11:20:06;;;;;;;10.45;6.78;;;;;;;30.78;34.20;95727.16;4935003;28;20272;-82
2023/06/26 11:22:34;;;;;;;7.90;7.20;;;;;;;30.95;34.33;95733.03;4959100;28;20184;-81
2023/06/26 11:25:00;;;;;;;7.68;6.93;;;;;;;31.17;34.84;95738.84;4946204;28;20205;-82
2023/06/26 11:27:31;;;;;;;7.13;6.53;;;;;;;31.51;34.46;95754.31;4963778;28;20199;-82
2023/06/26 11:29:56;;;;;;;9.18;6.57;;;;;;;31.34;34.40;95745.81;4954228;28;20193;-82
2023/06/26 11:32:22;;;;;;;8.00;6.82;;;;;;;31.18;34.30;95747.69;4959683;28;20191;-82
2023/06/26 11:34:47;;;;;;;8.25;7.07;;;;;;;31.25;34.09;95757.09;4963162;28;20217;-81
2023/06/26 11:37:16;;;;;;;7.68;6.70;;;;;;;31.39;34.09;95765.38;4939451;28;20212;-82
2023/06/26 11:39:42;;;;;;;11.07;6.93;;;;;;;31.00;34.27;95768.66;4968132;28;20721;-81
2023/06/26 11:42:07;;;;;;;7.30;6.57;;;;;;;31.19;34.48;95762.75;4970417;28;20267;-83
2023/06/26 11:44:39;;;;;;;7.32;6.68;;;;;;;31.44;33.99;95777.97;4954221;28;20324;-82